sensor_id;sensor_type;location;lat;lon;timestamp;pressure;altitude;pressure_sealevel;temperature;humidity
7052;BME280;3567;52.444;13.556;2023-05-10T00:01:26;100960.22;;;11.62;67.08
7052;BME280;3567;52.444;13.556;2023-05-10T00:03:52;100959.84;;;11.59;66.95
7052;BME280;3567;52.444;13.556;2023-05-10T00:06:17;100955.53;;;11.58;66.87
7052;BME280;3567;52.444;13.556;2023-05-10T00:08:43;100954.13;;;11.55;67.24
7052;BME280;3567;52.444;13.556;2023-05-10T00:11:08;100949.69;;;11.49;67.99
7052;BME280;3567;52.444;13.556;2023-05-10T00:13:34;100950.16;;;11.46;68.55
7052;BME280;3567;52.444;13.556;2023-05-10T00:15:59;100945.47;;;11.41;68.21
7052;BME280;3567;52.444;13.556;2023-05-10T00:18:25;100939.50;;;11.39;68.46
7052;BME280;3567;52.444;13.556;2023-05-10T00:20:50;100937.63;;;11.40;68.58
7052;BME280;3567;52.444;13.556;2023-05-10T00:23:16;100939.50;;;11.39;68.94
7052;BME280;3567;52.444;13.556;2023-05-10T00:25:41;100932.28;;;11.40;68.50
7052;BME280;3567;52.444;13.556;2023-05-10T00:28:07;100925.06;;;11.40;68.63
7052;BME280;3567;52.444;13.556;2023-05-10T00:30:32;100926.09;;;11.39;68.97
7052;BME280;3567;52.444;13.556;2023-05-10T00:32:57;100922.84;;;11.37;68.75
7052;BME280;3567;52.444;13.556;2023-05-10T00:35:23;100923.88;;;11.36;68.90
7052;BME280;3567;52.444;13.556;2023-05-10T00:37:48;100917.47;;;11.37;68.71
7052;BME280;3567;52.444;13.556;2023-05-10T00:40:14;100915.84;;;11.36;68.84
7052;BME280;3567;52.444;13.556;2023-05-10T00:42:39;100908.25;;;11.33;68.93
7052;BME280;3567;52.444;13.556;2023-05-10T00:45:05;100903.13;;;11.32;69.54
7052;BME280;3567;52.444;13.556;2023-05-10T00:47:32;100903.94;;;11.32;69.66
7052;BME280;3567;52.444;13.556;2023-05-10T00:49:58;100904.16;;;11.31;69.47
7052;BME280;3567;52.444;13.556;2023-05-10T00:52:26;100905.41;;;11.28;70.28
7052;BME280;3567;52.444;13.556;2023-05-10T00:54:52;100897.25;;;11.23;71.70
7052;BME280;3567;52.444;13.556;2023-05-10T00:57:17;100898.16;;;11.17;72.09
7052;BME280;3567;52.444;13.556;2023-05-10T00:59:42;100889.97;;;11.12;72.46
7052;BME280;3567;52.444;13.556;2023-05-10T01:02:08;100886.00;;;11.02;72.41
7052;BME280;3567;52.444;13.556;2023-05-10T01:04:34;100887.38;;;10.93;72.94
7052;BME280;3567;52.444;13.556;2023-05-10T01:07:00;100881.88;;;10.88;73.37
7052;BME280;3567;52.444;13.556;2023-05-10T01:09:26;100881.25;;;10.86;73.85
7052;BME280;3567;52.444;13.556;2023-05-10T01:11:53;100875.75;;;10.81;73.59
7052;BME280;3567;52.444;13.556;2023-05-10T01:14:19;100871.69;;;10.79;73.45
7052;BME280;3567;52.444;13.556;2023-05-10T01:16:47;100878.34;;;10.76;74.84
7052;BME280;3567;52.444;13.556;2023-05-10T01:19:22;100877.34;;;10.70;75.73
7052;BME280;3567;52.444;13.556;2023-05-10T01:27:21;100865.75;;;10.58;74.74
7052;BME280;3567;52.444;13.556;2023-05-10T01:32:26;100865.28;;;10.49;75.63
7052;BME280;3567;52.444;13.556;2023-05-10T01:35:00;100868.63;;;10.45;75.53
7052;BME280;3567;52.444;13.556;2023-05-10T01:40:51;100863.78;;;10.35;76.17
7052;BME280;3567;52.444;13.556;2023-05-10T01:43:23;100864.81;;;10.34;77.09
7052;BME280;3567;52.444;13.556;2023-05-10T01:46:16;100858.28;;;10.30;76.95
7052;BME280;3567;52.444;13.556;2023-05-10T01:48:51;100855.22;;;10.27;77.14
7052;BME280;3567;52.444;13.556;2023-05-10T01:51:25;100851.72;;;10.26;76.79
7052;BME280;3567;52.444;13.556;2023-05-10T01:53:56;100859.19;;;10.24;76.45
7052;BME280;3567;52.444;13.556;2023-05-10T01:56:25;100856.25;;;10.26;76.72
7052;BME280;3567;52.444;13.556;2023-05-10T01:58:52;100852.16;;;10.23;76.70
7052;BME280;3567;52.444;13.556;2023-05-10T02:01:20;100852.59;;;10.20;76.91
7052;BME280;3567;52.444;13.556;2023-05-10T02:03:47;100857.38;;;10.18;77.36
7052;BME280;3567;52.444;13.556;2023-05-10T02:06:16;100853.25;;;10.15;76.96
7052;BME280;3567;52.444;13.556;2023-05-10T02:08:44;100853.50;;;10.14;77.13
7052;BME280;3567;52.444;13.556;2023-05-10T02:11:13;100851.25;;;10.11;77.07
7052;BME280;3567;52.444;13.556;2023-05-10T02:13:39;100860.78;;;10.07;77.59
7052;BME280;3567;52.444;13.556;2023-05-10T02:16:06;100855.84;;;10.04;77.61
7052;BME280;3567;52.444;13.556;2023-05-10T02:18:33;100844.78;;;10.00;77.51
7052;BME280;3567;52.444;13.556;2023-05-10T02:21:00;100844.41;;;9.96;77.63
7052;BME280;3567;52.444;13.556;2023-05-10T02:23:26;100848.56;;;9.92;78.16
7052;BME280;3567;52.444;13.556;2023-05-10T02:25:54;100843.66;;;9.89;78.44
7052;BME280;3567;52.444;13.556;2023-05-10T02:28:21;100846.31;;;9.89;78.62
7052;BME280;3567;52.444;13.556;2023-05-10T02:30:48;100837.09;;;9.85;78.07
7052;BME280;3567;52.444;13.556;2023-05-10T02:33:14;100841.63;;;9.85;78.13
7052;BME280;3567;52.444;13.556;2023-05-10T02:35:40;100837.09;;;9.85;78.22
7052;BME280;3567;52.444;13.556;2023-05-10T02:38:06;100835.47;;;9.84;78.05
7052;BME280;3567;52.444;13.556;2023-05-10T02:40:33;100841.28;;;9.81;79.09
7052;BME280;3567;52.444;13.556;2023-05-10T02:43:01;100841.69;;;9.78;78.81
7052;BME280;3567;52.444;13.556;2023-05-10T02:45:29;100837.38;;;9.77;78.04
7052;BME280;3567;52.444;13.556;2023-05-10T02:47:56;100835.53;;;9.78;78.85
7052;BME280;3567;52.444;13.556;2023-05-10T02:50:22;100829.78;;;9.74;79.23
7052;BME280;3567;52.444;13.556;2023-05-10T02:52:50;100832.47;;;9.74;78.23
7052;BME280;3567;52.444;13.556;2023-05-10T02:55:22;100836.81;;;9.75;78.23
7052;BME280;3567;52.444;13.556;2023-05-10T02:57:57;100840.50;;;9.74;78.43
7052;BME280;3567;52.444;13.556;2023-05-10T03:00:24;100839.91;;;9.72;78.63
7052;BME280;3567;52.444;13.556;2023-05-10T03:02:50;100837.22;;;9.72;78.63
7052;BME280;3567;52.444;13.556;2023-05-10T03:05:15;100839.91;;;9.72;79.29
7052;BME280;3567;52.444;13.556;2023-05-10T03:07:40;100841.53;;;9.73;78.51
7052;BME280;3567;52.444;13.556;2023-05-10T03:10:06;100840.94;;;9.71;77.80
7052;BME280;3567;52.444;13.556;2023-05-10T03:18:29;100837.06;;;9.67;79.16
7052;BME280;3567;52.444;13.556;2023-05-10T03:21:02;100826.59;;;9.65;78.48
7052;BME280;3567;52.444;13.556;2023-05-10T03:23:35;100830.31;;;9.64;78.27
7052;BME280;3567;52.444;13.556;2023-05-10T03:26:04;100824.13;;;9.64;77.79
7052;BME280;3567;52.444;13.556;2023-05-10T03:28:31;100828.47;;;9.65;78.50
7052;BME280;3567;52.444;13.556;2023-05-10T03:30:59;100825.41;;;9.61;78.14
7052;BME280;3567;52.444;13.556;2023-05-10T03:33:25;100827.50;;;9.59;78.30
7052;BME280;3567;52.444;13.556;2023-05-10T03:35:50;100829.53;;;9.57;78.45
7052;BME280;3567;52.444;13.556;2023-05-10T03:38:15;100822.78;;;9.55;79.26
7052;BME280;3567;52.444;13.556;2023-05-10T03:40:41;100826.06;;;9.57;78.58
7052;BME280;3567;52.444;13.556;2023-05-10T03:43:06;100825.00;;;9.58;79.50
7052;BME280;3567;52.444;13.556;2023-05-10T03:45:31;100825.25;;;9.56;79.47
7052;BME280;3567;52.444;13.556;2023-05-10T03:47:58;100823.59;;;9.55;78.82
7052;BME280;3567;52.444;13.556;2023-05-10T03:50:24;100831.41;;;9.57;78.63
7052;BME280;3567;52.444;13.556;2023-05-10T03:52:49;100819.66;;;9.58;78.90
7052;BME280;3567;52.444;13.556;2023-05-10T03:55:15;100825.00;;;9.58;78.63
7052;BME280;3567;52.444;13.556;2023-05-10T03:57:41;100823.78;;;9.60;78.76
7052;BME280;3567;52.444;13.556;2023-05-10T04:00:07;100824.75;;;9.66;78.63
7052;BME280;3567;52.444;13.556;2023-05-10T04:02:33;100826.97;;;9.69;78.38
7052;BME280;3567;52.444;13.556;2023-05-10T04:04:58;100826.09;;;9.75;77.47
7052;BME280;3567;52.444;13.556;2023-05-10T04:07:23;100829.38;;;9.77;77.88
7052;BME280;3567;52.444;13.556;2023-05-10T04:09:49;100822.75;;;9.80;77.59
7052;BME280;3567;52.444;13.556;2023-05-10T04:12:14;100831.38;;;9.82;77.19
7052;BME280;3567;52.444;13.556;2023-05-10T04:14:39;100830.09;;;9.84;77.50
7052;BME280;3567;52.444;13.556;2023-05-10T04:17:05;100827.22;;;9.86;77.33
7052;BME280;3567;52.444;13.556;2023-05-10T04:19:31;100822.22;;;9.89;77.41
7052;BME280;3567;52.444;13.556;2023-05-10T04:21:57;100823.44;;;9.93;76.71
7052;BME280;3567;52.444;13.556;2023-05-10T04:24:23;100822.19;;;9.96;77.17
7052;BME280;3567;52.444;13.556;2023-05-10T04:26:48;100819.28;;;9.97;76.76
7052;BME280;3567;52.444;13.556;2023-05-10T04:29:14;100815.94;;;10.02;76.78
7052;BME280;3567;52.444;13.556;2023-05-10T04:31:39;100819.19;;;10.04;76.64
7052;BME280;3567;52.444;13.556;2023-05-10T04:34:05;100824.47;;;10.11;76.21
7052;BME280;3567;52.444;13.556;2023-05-10T04:36:30;100815.78;;;10.15;76.11
7052;BME280;3567;52.444;13.556;2023-05-10T04:38:57;100819.41;;;10.21;76.46
7052;BME280;3567;52.444;13.556;2023-05-10T04:41:23;100811.56;;;10.26;76.13
7052;BME280;3567;52.444;13.556;2023-05-10T04:43:48;100815.81;;;10.34;75.96
7052;BME280;3567;52.444;13.556;2023-05-10T04:46:14;100817.34;;;10.41;75.88
7052;BME280;3567;52.444;13.556;2023-05-10T04:48:40;100811.56;;;10.44;75.50
7052;BME280;3567;52.444;13.556;2023-05-10T04:51:05;100818.22;;;10.54;74.58
7052;BME280;3567;52.444;13.556;2023-05-10T04:53:31;100810.69;;;10.62;74.53
7052;BME280;3567;52.444;13.556;2023-05-10T04:55:57;100806.44;;;10.73;74.22
7052;BME280;3567;52.444;13.556;2023-05-10T04:58:22;100809.63;;;10.82;74.11
7052;BME280;3567;52.444;13.556;2023-05-10T05:00:47;100802.66;;;10.92;73.56
7052;BME280;3567;52.444;13.556;2023-05-10T05:03:13;100809.31;;;11.01;73.16
7052;BME280;3567;52.444;13.556;2023-05-10T05:05:38;100800.94;;;11.10;72.96
7052;BME280;3567;52.444;13.556;2023-05-10T05:08:03;100797.91;;;11.18;72.76
7052;BME280;3567;52.444;13.556;2023-05-10T05:10:29;100817.16;;;11.26;72.82
7052;BME280;3567;52.444;13.556;2023-05-10T05:12:55;100810.63;;;11.34;72.61
7052;BME280;3567;52.444;13.556;2023-05-10T05:15:20;100802.84;;;11.44;72.58
7052;BME280;3567;52.444;13.556;2023-05-10T05:17:46;100802.25;;;11.54;71.81
7052;BME280;3567;52.444;13.556;2023-05-10T05:20:11;100810.31;;;11.66;71.63
7052;BME280;3567;52.444;13.556;2023-05-10T05:22:38;100801.44;;;11.77;70.96
7052;BME280;3567;52.444;13.556;2023-05-10T05:25:04;100795.28;;;11.88;70.76
7052;BME280;3567;52.444;13.556;2023-05-10T05:27:30;100796.09;;;12.00;70.18
7052;BME280;3567;52.444;13.556;2023-05-10T05:29:56;100804.09;;;12.12;69.71
7052;BME280;3567;52.444;13.556;2023-05-10T05:32:22;100801.38;;;12.24;69.64
7052;BME280;3567;52.444;13.556;2023-05-10T05:34:48;100796.81;;;12.36;69.07
7052;BME280;3567;52.444;13.556;2023-05-10T05:37:17;100789.88;;;12.52;68.43
7052;BME280;3567;52.444;13.556;2023-05-10T05:39:43;100799.75;;;12.63;67.18
7052;BME280;3567;52.444;13.556;2023-05-10T05:42:09;100792.69;;;12.74;67.75
7052;BME280;3567;52.444;13.556;2023-05-10T05:44:35;100795.06;;;12.87;66.96
7052;BME280;3567;52.444;13.556;2023-05-10T05:47:00;100794.25;;;13.03;67.07
7052;BME280;3567;52.444;13.556;2023-05-10T05:49:26;100792.19;;;13.22;66.09
7052;BME280;3567;52.444;13.556;2023-05-10T05:51:51;100781.44;;;13.39;66.28
7052;BME280;3567;52.444;13.556;2023-05-10T05:54:16;100780.78;;;13.49;65.05
7052;BME280;3567;52.444;13.556;2023-05-10T05:56:42;100777.91;;;13.55;64.07
7052;BME280;3567;52.444;13.556;2023-05-10T05:59:07;100774.16;;;13.56;64.36
7052;BME280;3567;52.444;13.556;2023-05-10T06:01:33;100773.41;;;13.61;63.72
7052;BME280;3567;52.444;13.556;2023-05-10T06:03:58;100776.16;;;13.66;63.25
7052;BME280;3567;52.444;13.556;2023-05-10T06:06:23;100779.50;;;13.73;63.78
7052;BME280;3567;52.444;13.556;2023-05-10T06:08:49;100772.28;;;13.79;63.05
7052;BME280;3567;52.444;13.556;2023-05-10T06:11:14;100771.56;;;13.83;62.86
7052;BME280;3567;52.444;13.556;2023-05-10T06:13:39;100778.41;;;13.91;63.35
7052;BME280;3567;52.444;13.556;2023-05-10T06:16:05;100779.28;;;13.97;62.71
7052;BME280;3567;52.444;13.556;2023-05-10T06:18:31;100784.72;;;14.02;62.53
7052;BME280;3567;52.444;13.556;2023-05-10T06:20:56;100777.22;;;14.04;62.04
7052;BME280;3567;52.444;13.556;2023-05-10T06:23:22;100779.16;;;14.08;62.39
7052;BME280;3567;52.444;13.556;2023-05-10T06:25:48;100777.88;;;14.16;62.59
7052;BME280;3567;52.444;13.556;2023-05-10T06:28:13;100773.38;;;14.22;62.33
7052;BME280;3567;52.444;13.556;2023-05-10T06:30:38;100783.47;;;14.31;62.08
7052;BME280;3567;52.444;13.556;2023-05-10T06:33:04;100776.81;;;14.39;61.94
7052;BME280;3567;52.444;13.556;2023-05-10T06:35:30;100785.28;;;14.48;61.74
7052;BME280;3567;52.444;13.556;2023-05-10T06:37:56;100775.69;;;14.57;62.04
7052;BME280;3567;52.444;13.556;2023-05-10T06:40:21;100779.78;;;14.64;61.09
7052;BME280;3567;52.444;13.556;2023-05-10T06:42:47;100773.38;;;14.65;60.22
7052;BME280;3567;52.444;13.556;2023-05-10T06:45:14;100779.56;;;14.66;59.97
7052;BME280;3567;52.444;13.556;2023-05-10T06:47:40;100765.81;;;14.67;60.10
7052;BME280;3567;52.444;13.556;2023-05-10T06:50:07;100773.47;;;14.76;60.09
7052;BME280;3567;52.444;13.556;2023-05-10T06:52:32;100774.88;;;14.83;60.06
7052;BME280;3567;52.444;13.556;2023-05-10T06:54:58;100766.56;;;14.90;59.76
7052;BME280;3567;52.444;13.556;2023-05-10T06:57:23;100769.31;;;14.95;59.18
7052;BME280;3567;52.444;13.556;2023-05-10T06:59:49;100768.28;;;15.01;59.28
7052;BME280;3567;52.444;13.556;2023-05-10T07:02:14;100765.94;;;15.10;59.69
7052;BME280;3567;52.444;13.556;2023-05-10T07:04:40;100766.56;;;15.22;60.02
7052;BME280;3567;52.444;13.556;2023-05-10T07:07:05;100759.56;;;15.26;58.85
7052;BME280;3567;52.444;13.556;2023-05-10T07:09:30;100762.03;;;15.33;59.03
7052;BME280;3567;52.444;13.556;2023-05-10T07:11:56;100759.69;;;15.41;59.19
7052;BME280;3567;52.444;13.556;2023-05-10T07:14:22;100761.06;;;15.49;58.68
7052;BME280;3567;52.444;13.556;2023-05-10T07:16:48;100759.00;;;15.61;58.27
7052;BME280;3567;52.444;13.556;2023-05-10T07:19:13;100756.91;;;15.68;57.60
7052;BME280;3567;52.444;13.556;2023-05-10T07:21:39;100758.28;;;15.76;57.96
7052;BME280;3567;52.444;13.556;2023-05-10T07:24:05;100754.59;;;15.87;57.96
7052;BME280;3567;52.444;13.556;2023-05-10T07:26:31;100755.97;;;16.00;58.09
7052;BME280;3567;52.444;13.556;2023-05-10T07:28:56;100749.00;;;16.09;57.36
7052;BME280;3567;52.444;13.556;2023-05-10T07:31:22;100763.09;;;16.21;57.57
7052;BME280;3567;52.444;13.556;2023-05-10T07:33:47;100756.34;;;16.34;56.56
7052;BME280;3567;52.444;13.556;2023-05-10T07:36:12;100745.84;;;16.48;55.77
7052;BME280;3567;52.444;13.556;2023-05-10T07:38:38;100758.31;;;16.64;54.96
7052;BME280;3567;52.444;13.556;2023-05-10T07:41:03;100750.22;;;16.69;54.75
7052;BME280;3567;52.444;13.556;2023-05-10T07:43:28;100753.50;;;16.82;54.86
7052;BME280;3567;52.444;13.556;2023-05-10T07:45:54;100751.88;;;16.91;54.14
7052;BME280;3567;52.444;13.556;2023-05-10T07:48:19;100760.53;;;16.98;54.31
7052;BME280;3567;52.444;13.556;2023-05-10T07:50:45;100750.53;;;17.03;52.40
7052;BME280;3567;52.444;13.556;2023-05-10T07:53:10;100746.47;;;17.06;52.98
7052;BME280;3567;52.444;13.556;2023-05-10T07:55:36;100741.59;;;17.13;52.75
7052;BME280;3567;52.444;13.556;2023-05-10T07:58:01;100736.97;;;17.24;53.21
7052;BME280;3567;52.444;13.556;2023-05-10T08:00:26;100727.22;;;17.33;53.33
7052;BME280;3567;52.444;13.556;2023-05-10T08:02:52;100733.97;;;17.36;51.91
7052;BME280;3567;52.444;13.556;2023-05-10T08:05:18;100726.66;;;17.41;52.08
7052;BME280;3567;52.444;13.556;2023-05-10T08:07:43;100723.94;;;17.51;52.20
7052;BME280;3567;52.444;13.556;2023-05-10T08:10:09;100739.34;;;17.66;51.57
7052;BME280;3567;52.444;13.556;2023-05-10T08:12:36;100736.34;;;17.78;51.42
7052;BME280;3567;52.444;13.556;2023-05-10T08:15:02;100734.41;;;17.89;50.42
7052;BME280;3567;52.444;13.556;2023-05-10T08:17:28;100737.59;;;18.06;50.92
7052;BME280;3567;52.444;13.556;2023-05-10T08:19:53;100739.19;;;18.12;50.34
7052;BME280;3567;52.444;13.556;2023-05-10T08:22:19;100732.06;;;18.26;50.07
7052;BME280;3567;52.444;13.556;2023-05-10T08:24:44;100724.94;;;18.41;49.48
7052;BME280;3567;52.444;13.556;2023-05-10T08:27:09;100714.59;;;18.43;49.00
7052;BME280;3567;52.444;13.556;2023-05-10T08:29:35;100725.38;;;18.53;49.84
7052;BME280;3567;52.444;13.556;2023-05-10T08:32:00;100724.28;;;18.59;48.69
7052;BME280;3567;52.444;13.556;2023-05-10T08:34:26;100715.84;;;18.61;48.95
7052;BME280;3567;52.444;13.556;2023-05-10T08:36:52;100727.47;;;18.71;49.00
7052;BME280;3567;52.444;13.556;2023-05-10T08:39:17;100723.63;;;18.77;49.37
7052;BME280;3567;52.444;13.556;2023-05-10T08:41:44;100721.38;;;18.84;49.06
7052;BME280;3567;52.444;13.556;2023-05-10T08:44:10;100720.81;;;18.88;47.43
7052;BME280;3567;52.444;13.556;2023-05-10T08:46:37;100717.47;;;18.96;48.01
7052;BME280;3567;52.444;13.556;2023-05-10T08:49:06;100721.41;;;19.14;47.21
7052;BME280;3567;52.444;13.556;2023-05-10T08:51:36;100712.94;;;19.20;47.24
7052;BME280;3567;52.444;13.556;2023-05-10T08:54:03;100719.97;;;19.21;46.99
7052;BME280;3567;52.444;13.556;2023-05-10T08:56:29;100719.88;;;19.31;47.80
7052;BME280;3567;52.444;13.556;2023-05-10T08:58:55;100719.72;;;19.47;46.56
7052;BME280;3567;52.444;13.556;2023-05-10T09:01:21;100723.44;;;19.56;47.05
7052;BME280;3567;52.444;13.556;2023-05-10T09:03:47;100711.16;;;19.58;45.91
7052;BME280;3567;52.444;13.556;2023-05-10T09:06:13;100723.06;;;19.68;46.40
7052;BME280;3567;52.444;13.556;2023-05-10T09:08:40;100716.09;;;19.80;45.89
7052;BME280;3567;52.444;13.556;2023-05-10T09:11:06;100705.75;;;19.82;44.86
7052;BME280;3567;52.444;13.556;2023-05-10T09:13:32;100708.63;;;19.91;45.50
7052;BME280;3567;52.444;13.556;2023-05-10T09:15:59;100709.38;;;19.97;44.96
7052;BME280;3567;52.444;13.556;2023-05-10T09:18:24;100715.13;;;20.14;44.47
7052;BME280;3567;52.444;13.556;2023-05-10T09:20:50;100723.28;;;20.33;44.91
7052;BME280;3567;52.444;13.556;2023-05-10T09:23:15;100713.69;;;20.40;44.03
7052;BME280;3567;52.444;13.556;2023-05-10T09:25:41;100715.47;;;20.45;44.63
7052;BME280;3567;52.444;13.556;2023-05-10T09:28:08;100715.59;;;20.59;43.96
7052;BME280;3567;52.444;13.556;2023-05-10T09:30:34;100714.47;;;20.60;43.55
7052;BME280;3567;52.444;13.556;2023-05-10T09:33:00;100708.63;;;20.53;43.88
7052;BME280;3567;52.444;13.556;2023-05-10T09:35:28;100712.00;;;20.63;44.24
7052;BME280;3567;52.444;13.556;2023-05-10T09:37:55;100715.44;;;20.69;43.41
7052;BME280;3567;52.444;13.556;2023-05-10T09:40:22;100719.47;;;20.72;42.87
7052;BME280;3567;52.444;13.556;2023-05-10T09:45:17;100713.91;;;20.96;42.89
7052;BME280;3567;52.444;13.556;2023-05-10T09:47:42;100705.81;;;20.90;42.48
7052;BME280;3567;52.444;13.556;2023-05-10T09:50:09;100707.03;;;20.84;42.13
7052;BME280;3567;52.444;13.556;2023-05-10T09:55:21;100714.72;;;20.96;41.60
7052;BME280;3567;52.444;13.556;2023-05-10T09:57:47;100706.47;;;21.01;42.23
7052;BME280;3567;52.444;13.556;2023-05-10T10:00:19;100710.41;;;21.09;41.81
7052;BME280;3567;52.444;13.556;2023-05-10T10:02:54;100700.13;;;21.06;42.23
7052;BME280;3567;52.444;13.556;2023-05-10T10:05:19;100707.69;;;21.09;42.01
7052;BME280;3567;52.444;13.556;2023-05-10T10:07:45;100712.22;;;21.13;42.20
7052;BME280;3567;52.444;13.556;2023-05-10T10:10:10;100708.75;;;21.27;42.02
7052;BME280;3567;52.444;13.556;2023-05-10T10:12:38;100703.03;;;21.42;41.86
7052;BME280;3567;52.444;13.556;2023-05-10T10:15:04;100700.28;;;21.56;41.19
7052;BME280;3567;52.444;13.556;2023-05-10T10:17:32;100693.13;;;21.60;41.54
7052;BME280;3567;52.444;13.556;2023-05-10T10:19:58;100689.81;;;21.63;39.84
7052;BME280;3567;52.444;13.556;2023-05-10T10:22:23;100693.03;;;21.79;40.55
7052;BME280;3567;52.444;13.556;2023-05-10T10:24:50;100690.66;;;22.00;39.92
7052;BME280;3567;52.444;13.556;2023-05-10T10:27:23;100679.53;;;22.10;39.72
7052;BME280;3567;52.444;13.556;2023-05-10T10:35:19;100682.06;;;22.42;39.69
7052;BME280;3567;52.444;13.556;2023-05-10T10:37:46;100673.41;;;22.40;39.56
7052;BME280;3567;52.444;13.556;2023-05-10T10:40:31;100676.50;;;22.47;40.13
7052;BME280;3567;52.444;13.556;2023-05-10T10:42:57;100674.88;;;22.69;39.51
7052;BME280;3567;52.444;13.556;2023-05-10T10:45:24;100680.53;;;22.95;39.11
7052;BME280;3567;52.444;13.556;2023-05-10T10:48:20;100676.59;;;23.10;38.02
7052;BME280;3567;52.444;13.556;2023-05-10T10:50:45;100685.75;;;23.05;38.27
7052;BME280;3567;52.444;13.556;2023-05-10T10:53:14;100670.78;;;23.03;37.97
7052;BME280;3567;52.444;13.556;2023-05-10T10:55:48;100674.53;;;23.15;38.66
7052;BME280;3567;52.444;13.556;2023-05-10T10:58:33;100672.53;;;23.30;37.69
7052;BME280;3567;52.444;13.556;2023-05-10T11:01:15;100663.56;;;23.46;37.55
7052;BME280;3567;52.444;13.556;2023-05-10T11:06:33;100654.22;;;23.87;36.61
7052;BME280;3567;52.444;13.556;2023-05-10T11:09:08;100665.69;;;24.24;36.53
7052;BME280;3567;52.444;13.556;2023-05-10T11:11:36;100665.88;;;24.36;35.66
7052;BME280;3567;52.444;13.556;2023-05-10T11:14:06;100656.19;;;24.56;34.98
7052;BME280;3567;52.444;13.556;2023-05-10T11:16:44;100655.75;;;24.92;35.42
7052;BME280;3567;52.444;13.556;2023-05-10T11:19:11;100641.50;;;25.25;35.00
7052;BME280;3567;52.444;13.556;2023-05-10T11:24:20;100630.41;;;25.72;33.68
7052;BME280;3567;52.444;13.556;2023-05-10T11:26:46;100638.84;;;25.96;34.36
7052;BME280;3567;52.444;13.556;2023-05-10T11:29:15;100640.06;;;26.41;33.22
7052;BME280;3567;52.444;13.556;2023-05-10T11:31:45;100629.03;;;26.49;32.57
7052;BME280;3567;52.444;13.556;2023-05-10T11:34:12;100621.75;;;26.53;32.23
7052;BME280;3567;52.444;13.556;2023-05-10T11:36:51;100626.50;;;26.44;31.84
7052;BME280;3567;52.444;13.556;2023-05-10T11:39:19;100628.63;;;26.38;31.91
7052;BME280;3567;52.444;13.556;2023-05-10T11:41:48;100636.06;;;26.38;31.67
7052;BME280;3567;52.444;13.556;2023-05-10T11:44:13;100628.47;;;26.56;32.43
7052;BME280;3567;52.444;13.556;2023-05-10T11:46:38;100618.59;;;26.76;30.97
7052;BME280;3567;52.444;13.556;2023-05-10T11:49:04;100615.91;;;26.55;30.17
7052;BME280;3567;52.444;13.556;2023-05-10T11:51:35;100616.38;;;26.36;29.93
7052;BME280;3567;52.444;13.556;2023-05-10T11:54:05;100609.22;;;26.44;29.92
7052;BME280;3567;52.444;13.556;2023-05-10T11:56:32;100612.97;;;26.39;30.15
7052;BME280;3567;52.444;13.556;2023-05-10T11:58:58;100619.31;;;26.31;29.79
7052;BME280;3567;52.444;13.556;2023-05-10T12:01:26;100613.31;;;26.37;29.79
7052;BME280;3567;52.444;13.556;2023-05-10T12:03:53;100617.72;;;26.51;29.17
7052;BME280;3567;52.444;13.556;2023-05-10T12:06:19;100619.94;;;26.70;29.14
7052;BME280;3567;52.444;13.556;2023-05-10T12:08:47;100618.22;;;26.77;29.38
7052;BME280;3567;52.444;13.556;2023-05-10T12:11:13;100628.84;;;26.67;29.43
7052;BME280;3567;52.444;13.556;2023-05-10T12:13:42;100626.34;;;26.74;29.90
7052;BME280;3567;52.444;13.556;2023-05-10T12:16:18;100613.59;;;26.90;29.62
7052;BME280;3567;52.444;13.556;2023-05-10T12:18:44;100620.63;;;27.12;29.48
7052;BME280;3567;52.444;13.556;2023-05-10T12:21:11;100622.88;;;27.10;28.88
7052;BME280;3567;52.444;13.556;2023-05-10T12:23:38;100624.31;;;26.95;29.46
7052;BME280;3567;52.444;13.556;2023-05-10T12:26:04;100618.38;;;26.93;28.89
7052;BME280;3567;52.444;13.556;2023-05-10T12:28:30;100619.88;;;26.90;28.57
7052;BME280;3567;52.444;13.556;2023-05-10T12:30:57;100618.81;;;26.83;27.87
7052;BME280;3567;52.444;13.556;2023-05-10T12:33:23;100611.72;;;26.82;27.82
7052;BME280;3567;52.444;13.556;2023-05-10T12:35:53;100606.00;;;26.99;27.15
7052;BME280;3567;52.444;13.556;2023-05-10T12:38:48;100614.94;;;26.96;27.60
7052;BME280;3567;52.444;13.556;2023-05-10T12:41:16;100611.00;;;27.18;28.50
7052;BME280;3567;52.444;13.556;2023-05-10T12:43:42;100628.75;;;27.33;28.82
7052;BME280;3567;52.444;13.556;2023-05-10T12:46:13;100628.75;;;27.45;28.21
7052;BME280;3567;52.444;13.556;2023-05-10T12:48:40;100627.81;;;27.41;28.51
7052;BME280;3567;52.444;13.556;2023-05-10T12:51:06;100627.00;;;27.65;28.42
7052;BME280;3567;52.444;13.556;2023-05-10T12:53:35;100619.34;;;27.71;27.96
7052;BME280;3567;52.444;13.556;2023-05-10T12:56:01;100624.13;;;27.61;27.74
7052;BME280;3567;52.444;13.556;2023-05-10T12:58:26;100625.50;;;27.67;28.36
7052;BME280;3567;52.444;13.556;2023-05-10T13:00:52;100623.84;;;27.91;28.14
7052;BME280;3567;52.444;13.556;2023-05-10T13:03:17;100614.13;;;28.22;26.59
7052;BME280;3567;52.444;13.556;2023-05-10T13:05:43;100613.88;;;28.27;26.73
7052;BME280;3567;52.444;13.556;2023-05-10T13:08:08;100621.34;;;28.54;26.76
7052;BME280;3567;52.444;13.556;2023-05-10T13:10:34;100614.13;;;28.50;26.27
7052;BME280;3567;52.444;13.556;2023-05-10T13:12:59;100624.19;;;28.58;25.96
7052;BME280;3567;52.444;13.556;2023-05-10T13:15:25;100607.94;;;28.68;25.53
7052;BME280;3567;52.444;13.556;2023-05-10T13:17:51;100612.19;;;28.50;25.67
7052;BME280;3567;52.444;13.556;2023-05-10T13:20:16;100609.88;;;28.52;25.99
7052;BME280;3567;52.444;13.556;2023-05-10T13:22:43;100609.19;;;28.55;26.17
7052;BME280;3567;52.444;13.556;2023-05-10T13:25:09;100608.88;;;28.16;26.68
7052;BME280;3567;52.444;13.556;2023-05-10T13:27:35;100606.09;;;28.16;26.42
7052;BME280;3567;52.444;13.556;2023-05-10T13:30:01;100604.38;;;28.24;26.95
7052;BME280;3567;52.444;13.556;2023-05-10T13:32:28;100604.50;;;28.15;26.67
7052;BME280;3567;52.444;13.556;2023-05-10T13:34:53;100604.06;;;28.13;27.06